sensor_id;sensor_type;location;lat;lon;timestamp;temperature;humidity
34522;DHT22;25561;48.888;8.736;2023-04-05T05:31:26;0.20;99.90
34522;DHT22;25561;48.888;8.736;2023-04-05T05:34:30;0.70;99.90
34522;DHT22;25561;48.888;8.736;2023-04-05T05:37:33;1.90;99.90
34522;DHT22;25561;48.888;8.736;2023-04-05T05:40:36;2.80;99.90
34522;DHT22;25561;48.888;8.736;2023-04-05T05:43:38;3.20;99.90
34522;DHT22;25561;48.888;8.736;2023-04-05T05:46:40;4.00;99.90
34522;DHT22;25561;48.888;8.736;2023-04-05T05:49:42;5.00;99.90
34522;DHT22;25561;48.888;8.736;2023-04-05T05:52:45;6.20;99.90
34522;DHT22;25561;48.888;8.736;2023-04-05T05:55:47;7.30;99.90
34522;DHT22;25561;48.888;8.736;2023-04-05T05:58:49;7.70;99.90
34522;DHT22;25561;48.888;8.736;2023-04-05T06:01:51;7.60;99.90
34522;DHT22;25561;48.888;8.736;2023-04-05T06:04:53;6.70;99.90
34522;DHT22;25561;48.888;8.736;2023-04-05T06:07:55;5.30;99.90
34522;DHT22;25561;48.888;8.736;2023-04-05T06:10:57;6.40;99.90
34522;DHT22;25561;48.888;8.736;2023-04-05T06:49:29;9.20;99.90
34522;DHT22;25561;48.888;8.736;2023-04-05T06:52:33;11.00;99.90
34522;DHT22;25561;48.888;8.736;2023-04-05T06:55:35;11.80;99.90
34522;DHT22;25561;48.888;8.736;2023-04-05T06:58:37;12.70;99.90
34522;DHT22;25561;48.888;8.736;2023-04-05T07:01:41;13.30;98.50
34522;DHT22;25561;48.888;8.736;2023-04-05T07:04:43;12.80;96.90
34522;DHT22;25561;48.888;8.736;2023-04-05T07:07:45;12.50;96.00
34522;DHT22;25561;48.888;8.736;2023-04-05T07:10:49;13.60;92.90
34522;DHT22;25561;48.888;8.736;2023-04-05T07:13:52;13.90;91.40
34522;DHT22;25561;48.888;8.736;2023-04-05T07:16:53;14.70;88.90
34522;DHT22;25561;48.888;8.736;2023-04-05T07:19:55;15.50;86.40
34522;DHT22;25561;48.888;8.736;2023-04-05T07:22:57;15.60;81.60
34522;DHT22;25561;48.888;8.736;2023-04-05T07:26:02;15.90;80.40
34522;DHT22;25561;48.888;8.736;2023-04-05T07:29:09;16.30;76.80
34522;DHT22;25561;48.888;8.736;2023-04-05T07:32:11;16.40;75.90
34522;DHT22;25561;48.888;8.736;2023-04-05T07:35:13;16.70;74.40
34522;DHT22;25561;48.888;8.736;2023-04-05T07:38:15;17.30;70.10
34522;DHT22;25561;48.888;8.736;2023-04-05T07:41:16;16.50;69.60
34522;DHT22;25561;48.888;8.736;2023-04-05T07:44:20;14.90;73.90
34522;DHT22;25561;48.888;8.736;2023-04-05T07:47:22;14.70;74.90
34522;DHT22;25561;48.888;8.736;2023-04-05T07:50:25;15.30;77.60
34522;DHT22;25561;48.888;8.736;2023-04-05T07:53:27;15.50;72.80
34522;DHT22;25561;48.888;8.736;2023-04-05T07:56:29;14.40;74.00
34522;DHT22;25561;48.888;8.736;2023-04-05T07:59:31;14.30;73.10
34522;DHT22;25561;48.888;8.736;2023-04-05T08:02:33;15.10;72.20
34522;DHT22;25561;48.888;8.736;2023-04-05T08:05:34;16.10;66.00
34522;DHT22;25561;48.888;8.736;2023-04-05T08:08:36;15.60;69.20
34522;DHT22;25561;48.888;8.736;2023-04-05T08:11:41;17.40;66.80
34522;DHT22;25561;48.888;8.736;2023-04-05T08:14:43;17.60;63.50
34522;DHT22;25561;48.888;8.736;2023-04-05T08:17:45;16.90;62.80
34522;DHT22;25561;48.888;8.736;2023-04-05T08:20:54;16.00;65.30
34522;DHT22;25561;48.888;8.736;2023-04-05T08:23:56;16.00;68.30
34522;DHT22;25561;48.888;8.736;2023-04-05T08:26:58;16.90;65.70
34522;DHT22;25561;48.888;8.736;2023-04-05T08:30:00;15.90;72.00
34522;DHT22;25561;48.888;8.736;2023-04-05T08:33:02;16.80;62.50
34522;DHT22;25561;48.888;8.736;2023-04-05T08:36:08;17.90;58.00
34522;DHT22;25561;48.888;8.736;2023-04-05T08:39:10;17.70;60.60
34522;DHT22;25561;48.888;8.736;2023-04-05T08:42:17;16.20;61.50
34522;DHT22;25561;48.888;8.736;2023-04-05T08:45:19;15.70;62.30
34522;DHT22;25561;48.888;8.736;2023-04-05T08:48:23;15.10;64.40
34522;DHT22;25561;48.888;8.736;2023-04-05T08:51:25;14.60;66.50
34522;DHT22;25561;48.888;8.736;2023-04-05T08:54:27;16.40;63.10
34522;DHT22;25561;48.888;8.736;2023-04-05T08:57:30;17.50;59.80
34522;DHT22;25561;48.888;8.736;2023-04-05T09:00:32;18.00;57.20
34522;DHT22;25561;48.888;8.736;2023-04-05T09:03:35;18.10;57.30
34522;DHT22;25561;48.888;8.736;2023-04-05T09:06:38;17.90;57.90
34522;DHT22;25561;48.888;8.736;2023-04-05T09:09:52;16.90;58.10
34522;DHT22;25561;48.888;8.736;2023-04-05T09:12:56;17.20;56.70
34522;DHT22;25561;48.888;8.736;2023-04-05T09:16:00;16.10;58.80
34522;DHT22;25561;48.888;8.736;2023-04-05T09:19:02;16.00;58.90
34522;DHT22;25561;48.888;8.736;2023-04-05T09:22:06;16.40;58.30
34522;DHT22;25561;48.888;8.736;2023-04-05T09:25:08;16.70;56.30
34522;DHT22;25561;48.888;8.736;2023-04-05T09:28:10;16.90;55.80
34522;DHT22;25561;48.888;8.736;2023-04-05T09:31:29;16.60;57.00
34522;DHT22;25561;48.888;8.736;2023-04-05T09:34:33;16.10;56.60
34522;DHT22;25561;48.888;8.736;2023-04-05T09:37:34;16.10;56.70
34522;DHT22;25561;48.888;8.736;2023-04-05T09:40:54;14.70;59.40
34522;DHT22;25561;48.888;8.736;2023-04-05T09:43:56;15.80;58.00
34522;DHT22;25561;48.888;8.736;2023-04-05T09:47:14;15.20;59.70
34522;DHT22;25561;48.888;8.736;2023-04-05T09:50:18;15.70;58.60
34522;DHT22;25561;48.888;8.736;2023-04-05T09:53:20;16.20;57.90
34522;DHT22;25561;48.888;8.736;2023-04-05T09:56:22;17.70;55.50
34522;DHT22;25561;48.888;8.736;2023-04-05T09:59:24;17.60;52.10
34522;DHT22;25561;48.888;8.736;2023-04-05T10:02:35;15.90;56.10
34522;DHT22;25561;48.888;8.736;2023-04-05T10:05:43;16.60;54.80
34522;DHT22;25561;48.888;8.736;2023-04-05T10:08:46;16.90;54.80
34522;DHT22;25561;48.888;8.736;2023-04-05T10:11:48;16.60;54.30
34522;DHT22;25561;48.888;8.736;2023-04-05T10:14:51;16.30;56.00
34522;DHT22;25561;48.888;8.736;2023-04-05T10:18:09;15.60;55.40
34522;DHT22;25561;48.888;8.736;2023-04-05T10:21:14;15.10;56.80
34522;DHT22;25561;48.888;8.736;2023-04-05T10:24:45;15.20;57.10
34522;DHT22;25561;48.888;8.736;2023-04-05T10:27:54;14.90;58.00
34522;DHT22;25561;48.888;8.736;2023-04-05T10:31:14;14.40;58.80
34522;DHT22;25561;48.888;8.736;2023-04-05T10:34:56;15.00;59.60
34522;DHT22;25561;48.888;8.736;2023-04-05T10:38:22;15.70;56.60
34522;DHT22;25561;48.888;8.736;2023-04-05T10:41:25;15.60;56.90
34522;DHT22;25561;48.888;8.736;2023-04-05T10:44:30;15.20;57.40
34522;DHT22;25561;48.888;8.736;2023-04-05T10:47:43;14.70;57.60
34522;DHT22;25561;48.888;8.736;2023-04-05T10:50:47;14.50;58.80
34522;DHT22;25561;48.888;8.736;2023-04-05T10:53:50;14.40;58.70
34522;DHT22;25561;48.888;8.736;2023-04-05T10:56:52;14.70;58.60
34522;DHT22;25561;48.888;8.736;2023-04-05T10:59:55;14.90;61.40
34522;DHT22;25561;48.888;8.736;2023-04-05T11:02:57;14.80;57.80
34522;DHT22;25561;48.888;8.736;2023-04-05T11:09:24;14.00;59.20
34522;DHT22;25561;48.888;8.736;2023-04-05T11:16:07;14.40;61.40
34522;DHT22;25561;48.888;8.736;2023-04-05T11:19:09;15.20;58.90
34522;DHT22;25561;48.888;8.736;2023-04-05T11:22:12;15.30;58.20
34522;DHT22;25561;48.888;8.736;2023-04-05T11:25:24;15.40;57.20
34522;DHT22;25561;48.888;8.736;2023-04-05T11:28:29;15.30;57.60
34522;DHT22;25561;48.888;8.736;2023-04-05T11:31:32;14.80;57.30
34522;DHT22;25561;48.888;8.736;2023-04-05T11:34:37;14.10;59.90
34522;DHT22;25561;48.888;8.736;2023-04-05T11:37:55;14.50;58.40
34522;DHT22;25561;48.888;8.736;2023-04-05T11:41:13;14.10;58.90
34522;DHT22;25561;48.888;8.736;2023-04-05T11:44:18;13.10;60.30
34522;DHT22;25561;48.888;8.736;2023-04-05T11:47:20;12.50;63.10
34522;DHT22;25561;48.888;8.736;2023-04-05T11:50:22;11.50;66.10
34522;DHT22;25561;48.888;8.736;2023-04-05T11:53:25;10.90;67.20
34522;DHT22;25561;48.888;8.736;2023-04-05T11:56:27;11.00;69.20
34522;DHT22;25561;48.888;8.736;2023-04-05T11:59:33;11.20;68.50
34522;DHT22;25561;48.888;8.736;2023-04-05T12:02:35;10.80;67.30
34522;DHT22;25561;48.888;8.736;2023-04-05T12:05:53;10.50;69.00
34522;DHT22;25561;48.888;8.736;2023-04-05T12:08:55;10.60;70.10
34522;DHT22;25561;48.888;8.736;2023-04-05T12:11:57;10.50;69.80
34522;DHT22;25561;48.888;8.736;2023-04-05T12:15:00;9.60;70.00
34522;DHT22;25561;48.888;8.736;2023-04-05T12:18:02;9.60;73.00
34522;DHT22;25561;48.888;8.736;2023-04-05T12:21:08;9.90;71.40
34522;DHT22;25561;48.888;8.736;2023-04-05T12:24:10;10.20;71.20
34522;DHT22;25561;48.888;8.736;2023-04-05T12:27:13;9.60;71.40
34522;DHT22;25561;48.888;8.736;2023-04-05T12:30:17;9.70;71.60
34522;DHT22;25561;48.888;8.736;2023-04-05T12:33:26;9.90;72.20
34522;DHT22;25561;48.888;8.736;2023-04-05T12:36:29;10.00;71.40
34522;DHT22;25561;48.888;8.736;2023-04-05T12:39:37;9.90;71.30
34522;DHT22;25561;48.888;8.736;2023-04-05T12:42:40;9.80;71.00
34522;DHT22;25561;48.888;8.736;2023-04-05T12:45:42;9.60;73.10
34522;DHT22;25561;48.888;8.736;2023-04-05T12:48:49;9.50;72.50
34522;DHT22;25561;48.888;8.736;2023-04-05T12:51:51;9.70;72.70
34522;DHT22;25561;48.888;8.736;2023-04-05T12:54:53;9.60;71.10
34522;DHT22;25561;48.888;8.736;2023-04-05T12:57:59;9.50;70.90
34522;DHT22;25561;48.888;8.736;2023-04-05T13:01:02;9.70;72.10
34522;DHT22;25561;48.888;8.736;2023-04-05T13:04:04;9.60;70.80
34522;DHT22;25561;48.888;8.736;2023-04-05T13:07:17;9.80;75.00
34522;DHT22;25561;48.888;8.736;2023-04-05T13:10:20;10.10;72.70
34522;DHT22;25561;48.888;8.736;2023-04-05T13:13:22;10.00;70.40
34522;DHT22;25561;48.888;8.736;2023-04-05T13:16:24;10.10;70.70
34522;DHT22;25561;48.888;8.736;2023-04-05T13:19:26;9.90;67.70
34522;DHT22;25561;48.888;8.736;2023-04-05T13:22:27;10.00;71.10
34522;DHT22;25561;48.888;8.736;2023-04-05T13:25:32;9.90;67.50
34522;DHT22;25561;48.888;8.736;2023-04-05T13:28:34;9.80;68.20
34522;DHT22;25561;48.888;8.736;2023-04-05T13:31:36;10.10;70.40
34522;DHT22;25561;48.888;8.736;2023-04-05T13:34:38;10.10;67.40
34522;DHT22;25561;48.888;8.736;2023-04-05T13:37:39;10.00;68.20
34522;DHT22;25561;48.888;8.736;2023-04-05T13:40:41;10.00;67.60
34522;DHT22;25561;48.888;8.736;2023-04-05T13:43:43;9.90;68.30
34522;DHT22;25561;48.888;8.736;2023-04-05T13:46:45;9.90;69.30
34522;DHT22;25561;48.888;8.736;2023-04-05T13:49:47;9.90;67.10
34522;DHT22;25561;48.888;8.736;2023-04-05T13:52:48;9.70;67.20
34522;DHT22;25561;48.888;8.736;2023-04-05T13:55:51;9.70;67.30
34522;DHT22;25561;48.888;8.736;2023-04-05T13:58:53;9.70;67.30
34522;DHT22;25561;48.888;8.736;2023-04-05T14:01:55;9.80;69.20
34522;DHT22;25561;48.888;8.736;2023-04-05T14:04:57;9.60;68.10
34522;DHT22;25561;48.888;8.736;2023-04-05T14:07:59;9.80;70.00
34522;DHT22;25561;48.888;8.736;2023-04-05T14:11:01;9.60;71.70
34522;DHT22;25561;48.888;8.736;2023-04-05T14:14:03;9.80;70.40
34522;DHT22;25561;48.888;8.736;2023-04-05T14:17:04;9.80;70.40
34522;DHT22;25561;48.888;8.736;2023-04-05T14:20:08;10.00;67.90
34522;DHT22;25561;48.888;8.736;2023-04-05T14:23:09;10.00;68.90
34522;DHT22;25561;48.888;8.736;2023-04-05T14:26:11;10.10;69.40
34522;DHT22;25561;48.888;8.736;2023-04-05T14:29:17;10.00;71.30
34522;DHT22;25561;48.888;8.736;2023-04-05T14:32:19;9.80;71.70
34522;DHT22;25561;48.888;8.736;2023-04-05T14:35:21;9.70;72.50
34522;DHT22;25561;48.888;8.736;2023-04-05T14:38:23;9.70;70.40
34522;DHT22;25561;48.888;8.736;2023-04-05T14:41:25;10.00;72.50
34522;DHT22;25561;48.888;8.736;2023-04-05T14:44:27;10.10;71.70
34522;DHT22;25561;48.888;8.736;2023-04-05T14:47:29;10.00;72.30
34522;DHT22;25561;48.888;8.736;2023-04-05T14:50:31;9.80;72.50
34522;DHT22;25561;48.888;8.736;2023-04-05T14:53:33;9.80;72.10
34522;DHT22;25561;48.888;8.736;2023-04-05T14:56:35;9.70;71.20
34522;DHT22;25561;48.888;8.736;2023-04-05T14:59:36;9.70;70.60
34522;DHT22;25561;48.888;8.736;2023-04-05T15:02:38;9.60;73.40
34522;DHT22;25561;48.888;8.736;2023-04-05T15:05:41;9.60;75.30
34522;DHT22;25561;48.888;8.736;2023-04-05T15:08:43;9.60;72.10
34522;DHT22;25561;48.888;8.736;2023-04-05T15:11:45;9.70;73.30
34522;DHT22;25561;48.888;8.736;2023-04-05T15:14:47;9.70;75.50
34522;DHT22;25561;48.888;8.736;2023-04-05T15:17:53;9.60;74.00
34522;DHT22;25561;48.888;8.736;2023-04-05T15:20:55;9.70;76.90
34522;DHT22;25561;48.888;8.736;2023-04-05T15:23:57;9.70;75.50
34522;DHT22;25561;48.888;8.736;2023-04-05T15:26:59;9.60;77.70
34522;DHT22;25561;48.888;8.736;2023-04-05T15:30:04;9.60;77.90
34522;DHT22;25561;48.888;8.736;2023-04-05T15:33:06;9.60;76.20
34522;DHT22;25561;48.888;8.736;2023-04-05T15:36:08;9.70;75.30
34522;DHT22;25561;48.888;8.736;2023-04-05T15:39:10;9.80;75.90
34522;DHT22;25561;48.888;8.736;2023-04-05T15:42:12;9.80;76.80
34522;DHT22;25561;48.888;8.736;2023-04-05T15:45:16;9.90;76.40
34522;DHT22;25561;48.888;8.736;2023-04-05T15:48:18;9.90;75.40
34522;DHT22;25561;48.888;8.736;2023-04-05T15:51:20;9.80;74.70
34522;DHT22;25561;48.888;8.736;2023-04-05T15:54:21;9.80;76.20
34522;DHT22;25561;48.888;8.736;2023-04-05T15:57:23;9.60;75.90
